Terminal Aerodrome Forecast
Issued by NWS

Home | Current Version | Previous Version | Text Only | Print | Product List | Glossary On
Versions: 1 2 3 4 5 6 7 8 9 10 11 12 13 14 15
000
FTUS43 KMPX 280756 AAA
TAFRNH
TAF AMD
KRNH 280756Z 2808/0106 13008KT P6SM BKN060 OVC120
     FM281200 VRB03KT P6SM OVC025
     FM281400 04005KT P6SM OVC018
     FM282000 36009KT P6SM OVC012
     FM010200 01010KT P6SM VCSH OVC020=

USA.gov is the U.S. government's official web portal to all federal, state and local government web resources and services.